aviador You're here:

VEPT Decoded Metar

PATINA in INDIA
Report Time2017-11-20 22:30:00
UTC Time2017-11-20 22:48:26
Flight Rules ifr IFR
Wind270° at 04 kt
W.Decomp.*RWY 25: 3.8 kt HW 1.4 kt RCW
W.Rank270° ranks 2
Current wind is below 270° avg. (4.5)
Visibility2000 m
Phenomena:Mist
Clouds:N/A
Expected CloudBase > 800 ft AGL from Temp-Dew spread
CeilingNone
Temp18°C (ISA +3)
Dew Point16°C (88% RH)
QNH1012 hPa
Density Alt873 ft
Elevation197 ft
Report Wrong Elevation
Raw Report
METAR VEPT 202230Z 27004KT 2000 BR NSC 18/16 Q1012 NOSIG=

Extra information for VEPT:More info

Metar Taf Metar & Taf Last 4 Metars F.Rules Stats Wind Profile Meteogram Temp Stats Airport Information Weather charts Add Link Nearby VenuesMetar ALERT Operation Metar Decoded Social comments